createdAt,value
2024-04-22T00:01:36.333Z,5.80
2024-04-22T00:06:38.605Z,6.10
2024-04-22T00:11:40.988Z,6.00
2024-04-22T00:16:43.025Z,5.80
2024-04-22T00:21:44.937Z,5.90
2024-04-22T00:26:46.764Z,5.70
2024-04-22T00:31:48.609Z,5.70
2024-04-22T00:36:50.575Z,5.70
2024-04-22T00:41:53.328Z,5.70
2024-04-22T00:46:55.749Z,5.80
2024-04-22T00:51:57.745Z,5.80
2024-04-22T00:56:59.536Z,5.80
2024-04-22T01:02:01.836Z,5.70
2024-04-22T01:07:04.794Z,5.80
2024-04-22T01:12:07.023Z,5.70
2024-04-22T01:17:08.891Z,5.70
2024-04-22T01:22:10.681Z,5.80
2024-04-22T01:27:12.817Z,5.90
2024-04-22T01:32:14.631Z,5.90
2024-04-22T01:37:16.615Z,5.90
2024-04-22T01:42:18.720Z,5.80
2024-04-22T01:47:20.631Z,7.30
2024-04-22T01:52:22.704Z,5.60
2024-04-22T01:57:24.775Z,5.80
2024-04-22T02:02:26.639Z,5.90
2024-04-22T02:07:28.821Z,5.60
2024-04-22T02:12:30.726Z,5.80
2024-04-22T02:17:32.729Z,5.80
2024-04-22T02:22:34.587Z,5.80
2024-04-22T02:27:36.569Z,5.80
2024-04-22T02:32:38.423Z,5.70
2024-04-22T02:37:40.310Z,5.80
2024-04-22T02:42:42.175Z,5.80
2024-04-22T02:47:44.071Z,5.80
2024-04-22T02:52:46.224Z,5.70
2024-04-22T02:57:48.088Z,5.40
2024-04-22T03:02:50.010Z,5.60
2024-04-22T03:07:52.286Z,5.60
2024-04-22T03:12:54.135Z,5.60
2024-04-22T03:17:55.922Z,5.70
2024-04-22T03:22:57.939Z,5.40
2024-04-22T03:27:59.734Z,5.30
2024-04-22T03:33:01.619Z,5.30
2024-04-22T03:38:03.516Z,5.20
2024-04-22T03:43:05.488Z,5.20
2024-04-22T03:48:26.219Z,4.90
2024-04-22T03:53:28.036Z,4.80
2024-04-22T03:58:29.870Z,4.80
2024-04-22T04:03:31.820Z,4.90
2024-04-22T04:08:33.919Z,4.80
2024-04-22T04:13:35.806Z,4.50
2024-04-22T04:18:41.812Z,4.60
2024-04-22T04:23:43.666Z,4.50
2024-04-22T04:28:49.363Z,4.40
2024-04-22T04:33:51.262Z,4.20
2024-04-22T04:38:53.120Z,4.30
2024-04-22T04:43:54.909Z,4.20
2024-04-22T04:48:57.119Z,4.70
2024-04-22T04:53:58.938Z,4.30
2024-04-22T04:59:00.867Z,4.40
2024-04-22T05:04:03.952Z,4.10
2024-04-22T05:09:05.917Z,4.30
2024-04-22T05:14:08.187Z,4.40
2024-04-22T05:19:10.033Z,4.40
2024-04-22T05:24:12.279Z,4.30
2024-04-22T05:29:14.732Z,4.30
2024-04-22T05:34:35.640Z,4.60
2024-04-22T05:39:37.738Z,5.70
2024-04-22T05:44:39.603Z,4.80
2024-04-22T05:49:41.610Z,4.90
2024-04-22T05:54:43.506Z,4.80
2024-04-22T05:59:45.354Z,5.10
2024-04-22T06:04:47.238Z,5.20
2024-04-22T06:09:49.085Z,5.30
2024-04-22T06:14:51.961Z,5.50
2024-04-22T06:19:53.768Z,5.50
2024-04-22T06:24:55.762Z,5.70
2024-04-22T06:29:57.632Z,5.80
2024-04-22T06:34:59.484Z,5.70
2024-04-22T06:40:01.337Z,6.10
2024-04-22T06:45:03.294Z,6.20
2024-04-22T06:50:05.406Z,6.30
2024-04-22T06:55:08.266Z,6.40
2024-04-22T07:00:10.876Z,6.60
2024-04-22T07:05:13.412Z,6.90
2024-04-22T07:10:15.498Z,6.80
2024-04-22T07:15:19.801Z,7.10
2024-04-22T07:20:21.767Z,7.20
2024-04-22T07:25:23.637Z,7.10
2024-04-22T07:30:26.273Z,7.10
2024-04-22T07:35:28.935Z,7.20
2024-04-22T07:40:31.423Z,8.20
2024-04-22T07:45:33.764Z,7.50
2024-04-22T07:50:37.026Z,7.20
2024-04-22T07:55:39.271Z,7.50
2024-04-22T08:00:41.609Z,7.70
2024-04-22T08:05:43.718Z,8.10
2024-04-22T08:10:45.986Z,8.70
2024-04-22T08:15:48.862Z,9.60
2024-04-22T08:20:50.772Z,9.50
2024-04-22T08:25:53.873Z,9.30
2024-04-22T08:31:05.877Z,9.30
2024-04-22T08:36:08.689Z,9.80
2024-04-22T08:41:16.229Z,9.70
2024-04-22T08:46:19.036Z,10.20
2024-04-22T08:51:21.794Z,10.10
2024-04-22T08:56:25.371Z,10.40
2024-04-22T09:01:30.476Z,11.90
2024-04-22T09:06:32.360Z,10.60
2024-04-22T09:11:58.134Z,11.30
2024-04-22T09:16:57.284Z,11.10
2024-04-22T09:22:00.677Z,11.00
2024-04-22T09:27:02.583Z,11.30
2024-04-22T09:32:11.285Z,11.50
2024-04-22T09:37:13.770Z,10.90
2024-04-22T09:42:16.470Z,11.80
2024-04-22T09:47:20.765Z,12.40
2024-04-22T09:52:24.212Z,13.20
2024-04-22T09:57:28.767Z,13.40
2024-04-22T10:02:31.089Z,13.40
2024-04-22T10:07:33.134Z,13.80
2024-04-22T10:12:35.128Z,13.70
2024-04-22T10:17:37.351Z,14.20
2024-04-22T10:22:39.974Z,12.10
2024-04-22T10:27:42.049Z,11.90
2024-04-22T10:32:44.128Z,11.80
2024-04-22T10:37:46.470Z,11.40
2024-04-22T10:42:51.224Z,11.90
2024-04-22T10:48:05.042Z,11.40
2024-04-22T10:53:14.006Z,11.50
2024-04-22T10:58:16.546Z,11.50
2024-04-22T11:03:18.560Z,11.30
2024-04-22T11:08:20.894Z,11.00
2024-04-22T11:13:23.675Z,10.40
2024-04-22T11:18:25.571Z,11.70
2024-04-22T11:23:27.591Z,13.40
2024-04-22T11:28:30.960Z,14.40
2024-04-22T11:33:32.939Z,15.60
2024-04-22T11:38:34.779Z,13.90
2024-04-22T11:43:36.853Z,13.60
2024-04-22T11:48:39.924Z,13.30
2024-04-22T11:53:41.987Z,13.50
2024-04-22T11:58:44.019Z,12.30
2024-04-22T12:03:45.919Z,11.90
2024-04-22T12:08:47.811Z,12.00
2024-04-22T12:13:49.749Z,13.20
2024-04-22T12:18:51.613Z,13.70
2024-04-22T12:23:53.450Z,13.00
2024-04-22T12:28:55.540Z,12.90
2024-04-22T12:34:06.658Z,13.80
2024-04-22T12:39:14.263Z,15.60
2024-04-22T12:44:16.167Z,13.20
2024-04-22T12:49:36.995Z,13.10
2024-04-22T12:54:40.180Z,14.10
2024-04-22T12:59:42.077Z,14.00
2024-04-22T13:04:44.014Z,14.50
2024-04-22T13:09:46.324Z,14.10
2024-04-22T13:14:48.171Z,13.70
2024-04-22T13:19:50.251Z,13.20
2024-04-22T13:24:52.923Z,13.20
2024-04-22T13:29:54.730Z,13.60
2024-04-22T13:34:57.135Z,13.30
2024-04-22T13:39:59.050Z,13.20
2024-04-22T13:45:01.037Z,13.20
2024-04-22T13:50:03.114Z,12.60
2024-04-22T13:55:06.728Z,12.40
2024-04-22T14:00:12.209Z,12.90
2024-04-22T14:05:16.224Z,13.70
2024-04-22T14:10:18.219Z,14.60
2024-04-22T14:15:20.166Z,13.70
2024-04-22T14:20:22.241Z,14.00
2024-04-22T14:25:24.365Z,12.40
2024-04-22T14:30:26.255Z,12.60
2024-04-22T14:35:28.061Z,12.00
2024-04-22T14:40:29.955Z,11.90
2024-04-22T14:45:32.085Z,12.00
2024-04-22T14:50:33.956Z,12.70
2024-04-22T14:55:39.719Z,11.60
2024-04-22T15:00:41.608Z,12.50
2024-04-22T15:05:43.559Z,12.00
2024-04-22T15:10:53.176Z,12.70
2024-04-22T15:15:55.183Z,13.70
2024-04-22T15:20:57.059Z,13.70
2024-04-22T15:25:59.022Z,13.60
2024-04-22T15:31:02.880Z,13.60
2024-04-22T15:36:07.006Z,13.00
2024-04-22T15:41:09.035Z,12.90
2024-04-22T15:46:12.572Z,12.50
2024-04-22T15:51:15.041Z,12.50
2024-04-22T15:56:19.101Z,12.00
2024-04-22T16:01:21.176Z,13.80
2024-04-22T16:06:23.081Z,12.00
2024-04-22T16:11:24.909Z,11.50
2024-04-22T16:16:27.581Z,11.20
2024-04-22T16:21:29.469Z,11.00
2024-04-22T16:26:31.691Z,11.00
2024-04-22T16:31:33.535Z,10.30
2024-04-22T16:36:35.439Z,9.90
2024-04-22T16:41:37.290Z,10.20
2024-04-22T16:46:39.456Z,9.70
2024-04-22T16:51:45.065Z,9.40
2024-04-22T16:56:47.046Z,9.10
2024-04-22T17:01:49.053Z,9.50
2024-04-22T17:06:50.925Z,9.50
2024-04-22T17:11:52.951Z,9.50
2024-04-22T17:16:54.833Z,9.60
2024-04-22T17:21:56.624Z,9.70
2024-04-22T17:27:00.896Z,9.60
2024-04-22T17:32:02.916Z,9.70
2024-04-22T17:37:04.991Z,9.40
2024-04-22T17:42:07.058Z,8.90
2024-04-22T17:47:08.889Z,8.80
2024-04-22T17:52:10.741Z,8.50
2024-04-22T17:57:12.582Z,8.30
2024-04-22T18:02:14.652Z,8.50
2024-04-22T18:07:16.509Z,8.50
2024-04-22T18:12:18.455Z,8.50
2024-04-22T18:17:20.359Z,8.50
2024-04-22T18:22:22.390Z,8.60
2024-04-22T18:27:28.435Z,8.60
2024-04-22T18:32:31.137Z,8.50
2024-04-22T18:37:33.532Z,8.50
2024-04-22T18:42:35.395Z,7.40
2024-04-22T18:47:37.322Z,8.30
2024-04-22T18:52:39.201Z,8.30
2024-04-22T18:57:41.089Z,8.70
2024-04-22T19:02:42.951Z,8.40
2024-04-22T19:07:47.348Z,8.30
2024-04-22T19:12:49.599Z,8.20
2024-04-22T19:17:52.529Z,8.10
2024-04-22T19:22:54.464Z,8.10
2024-04-22T19:27:56.414Z,8.00
2024-04-22T19:32:58.421Z,7.90
2024-04-22T19:38:02.790Z,7.80
2024-04-22T19:43:04.757Z,7.80
2024-04-22T19:48:07.182Z,7.60
2024-04-22T19:53:09.203Z,7.40
2024-04-22T19:58:11.555Z,7.20
2024-04-22T20:03:13.916Z,7.00
2024-04-22T20:08:15.835Z,6.90
2024-04-22T20:13:19.351Z,6.80
2024-04-22T20:18:29.257Z,6.70
2024-04-22T20:23:31.190Z,6.50
2024-04-22T20:28:33.475Z,6.30
2024-04-22T20:33:35.993Z,6.30
2024-04-22T20:38:38.028Z,7.30
2024-04-22T20:43:39.928Z,6.30
2024-04-22T20:48:41.877Z,6.10
2024-04-22T20:53:43.745Z,7.60
2024-04-22T20:58:46.099Z,6.30
2024-04-22T21:03:48.676Z,6.10
2024-04-22T21:08:50.596Z,6.00
2024-04-22T21:14:02.751Z,5.90
2024-04-22T21:19:11.612Z,5.60
2024-04-22T21:24:20.396Z,5.70
2024-04-22T21:29:22.199Z,5.70
2024-04-22T21:34:24.219Z,5.60
2024-04-22T21:39:26.538Z,5.60
2024-04-22T21:44:30.215Z,5.40
2024-04-22T21:49:32.164Z,5.30
2024-04-22T21:54:33.997Z,5.20
2024-04-22T22:00:13.339Z,5.20
2024-04-22T22:05:53.112Z,5.20
2024-04-22T22:10:56.248Z,5.10
2024-04-22T22:15:59.274Z,5.10
2024-04-22T22:21:01.163Z,5.10
2024-04-22T22:26:03.008Z,4.80
2024-04-22T22:31:05.099Z,4.80
2024-04-22T22:36:07.310Z,4.80
2024-04-22T22:41:09.135Z,4.80
2024-04-22T22:46:11.273Z,4.80
2024-04-22T22:51:13.089Z,4.70
2024-04-22T22:56:14.925Z,4.60
2024-04-22T23:01:16.800Z,4.60
2024-04-22T23:06:18.572Z,5.00
2024-04-22T23:11:20.580Z,4.20
2024-04-22T23:16:22.783Z,5.90
2024-04-22T23:21:24.678Z,4.30
2024-04-22T23:26:26.832Z,4.30
2024-04-22T23:31:28.651Z,4.20
2024-04-22T23:36:30.463Z,4.10
2024-04-22T23:41:32.268Z,4.10
2024-04-22T23:46:34.266Z,4.40
2024-04-22T23:51:36.053Z,4.10
2024-04-22T23:56:37.850Z,4.00
